Angelica, New York
Current Conditions -  °F | °C
As of 5:56 AM on Saturday 22 Nov 2014 (Local Time) from KELZ Reporting Station
Clear Clear  
Wind Chill: -14°   Ceiling: Unl
Heat Index: -7°   Visibility: 10mi
Dew Point: -14°   Wind: 13mph
Humidity: 57%   Direction: 220°SW
Pressure: 30.24"   Gusts: NA
Location:  42.31°N, 78.02°W
Report Text: KELZ 221056Z AUTO 22011KT 10SM CLR M07/M14 A3024 RMK AO2 SLP278 T10721144
Loading
Personal Weather Stations






























Interactive Weather Map New forecast layout! Learn more

10-Day Weather Forecast

Advertisements
Track Severe Weather on mobile